Albany, NY

6:15 AM EDT on August 24, 2016 (GMT -0400)
APRSWXNET | | Change Station

Elev 419 ft 42.67 °N, 73.71 °W | Updated 23 minutes ago

Patches of Fog
Patches Fog
60 °F
Feels Like 60 °F
N
0
Wind Variable Wind from SE
Gusts 0.0 mph

Today
High -- | Low -- °F
--% Chance of Precip.
Yesterday
High -- | Low -- °F
Precip. -- in
Pressure 30.26 in
Visibility 10.0 miles
Clouds Few 26000 ft
Dew Point 57 °F
Humidity 89%
Rainfall in
Snow Depth Not available.
6:11 AM 7:41 PM
Waning Gibbous, 58% visible
METAR KALB 240951Z COR 00000KT 10SM BCFG FEW260 15/14 A3026 RMK AO2 SLP246 BCFG N T01500139
Pressure 30.26 in
Visibility 10.0 miles
Clouds Few 26000 ft
Dew Point 57 °F
Humidity 89%
Rainfall in
Snow Depth Not available.
6:11 AM 7:41 PM
Waning Gibbous, 58% visible
METAR KALB 240951Z COR 00000KT 10SM BCFG FEW260 15/14 A3026 RMK AO2 SLP246 BCFG N T01500139

10-Day Weather Forecast

Almanac

Astronomy

Aug. 24, 2016 Rise Set
Actual Time
Civil Twilight
Nautical Twilight
Astronomical Twilight
Moon
Length of Visible Light
Length of Day
Tomorrow will be .
, % of the Moon is Illuminated

Today's Extremes

State Highs State Lows

Community

WunderPhotos

Upload Photos

1,934,560 photos uploaded!

WunderBlog® & News

Nearby

Air Quality

  Air Quality AQ Index Pollutant
Not available.

Snow Depth

Station Depth Elevation

Earthquake Activity

City Distance Mag. Time & Date
Minimum magnitude displayed is 2.5.

Coastal Water Temperatures

Place Temperature

Stations

Nearby Weather Stations

Station Location Temp. Windchill Dew Point Humidity Wind Precip. Elev Updated Type
                   

Watches & Warnings

There are currently no watches in effect.